sensor_id;sensor_type;location;lat;lon;timestamp;P1;durP1;ratioP1;P2;durP2;ratioP2
27706;SDS011;36332;51.384;0.040;2023-05-21T00:01:28;6.30;;;3.20;;
27706;SDS011;36332;51.384;0.040;2023-05-21T00:03:56;9.32;;;3.67;;
27706;SDS011;36332;51.384;0.040;2023-05-21T00:06:25;10.10;;;3.17;;
27706;SDS011;36332;51.384;0.040;2023-05-21T00:08:54;8.55;;;3.40;;
27706;SDS011;36332;51.384;0.040;2023-05-21T00:11:22;9.93;;;3.63;;
27706;SDS011;36332;51.384;0.040;2023-05-21T00:13:50;7.20;;;3.10;;
27706;SDS011;36332;51.384;0.040;2023-05-21T00:16:18;6.30;;;3.00;;
27706;SDS011;36332;51.384;0.040;2023-05-21T00:18:46;15.38;;;4.00;;
27706;SDS011;36332;51.384;0.040;2023-05-21T00:21:16;6.10;;;2.67;;
27706;SDS011;36332;51.384;0.040;2023-05-21T00:23:44;10.02;;;3.30;;
27706;SDS011;36332;51.384;0.040;2023-05-21T00:26:14;9.68;;;3.10;;
27706;SDS011;36332;51.384;0.040;2023-05-21T00:28:43;11.95;;;3.35;;
27706;SDS011;36332;51.384;0.040;2023-05-21T00:31:12;11.63;;;3.17;;
27706;SDS011;36332;51.384;0.040;2023-05-21T00:33:40;14.38;;;3.78;;
27706;SDS011;36332;51.384;0.040;2023-05-21T00:36:08;7.13;;;2.97;;
27706;SDS011;36332;51.384;0.040;2023-05-21T00:38:40;6.47;;;3.15;;
27706;SDS011;36332;51.384;0.040;2023-05-21T00:41:12;12.05;;;3.10;;
27706;SDS011;36332;51.384;0.040;2023-05-21T00:43:40;14.73;;;3.92;;
27706;SDS011;36332;51.384;0.040;2023-05-21T00:46:09;8.27;;;3.28;;
27706;SDS011;36332;51.384;0.040;2023-05-21T00:48:39;7.35;;;3.60;;
27706;SDS011;36332;51.384;0.040;2023-05-21T00:51:08;7.10;;;3.65;;
27706;SDS011;36332;51.384;0.040;2023-05-21T00:53:36;19.65;;;4.03;;
27706;SDS011;36332;51.384;0.040;2023-05-21T00:56:04;16.33;;;4.32;;
27706;SDS011;36332;51.384;0.040;2023-05-21T00:58:32;11.48;;;3.53;;
27706;SDS011;36332;51.384;0.040;2023-05-21T01:01:01;11.68;;;4.00;;
27706;SDS011;36332;51.384;0.040;2023-05-21T01:03:30;14.52;;;3.75;;
27706;SDS011;36332;51.384;0.040;2023-05-21T01:06:05;7.60;;;3.42;;
27706;SDS011;36332;51.384;0.040;2023-05-21T01:08:34;16.63;;;4.35;;
27706;SDS011;36332;51.384;0.040;2023-05-21T01:11:03;5.50;;;3.10;;
27706;SDS011;36332;51.384;0.040;2023-05-21T01:13:33;9.75;;;3.33;;
27706;SDS011;36332;51.384;0.040;2023-05-21T01:16:03;11.10;;;3.95;;
27706;SDS011;36332;51.384;0.040;2023-05-21T01:18:35;10.40;;;3.47;;
27706;SDS011;36332;51.384;0.040;2023-05-21T01:21:04;7.22;;;4.22;;
27706;SDS011;36332;51.384;0.040;2023-05-21T01:23:33;10.98;;;4.18;;
27706;SDS011;36332;51.384;0.040;2023-05-21T01:26:01;12.10;;;4.40;;
27706;SDS011;36332;51.384;0.040;2023-05-21T01:28:29;11.48;;;4.25;;
27706;SDS011;36332;51.384;0.040;2023-05-21T01:31:02;17.10;;;4.38;;
27706;SDS011;36332;51.384;0.040;2023-05-21T01:33:46;20.17;;;4.50;;
27706;SDS011;36332;51.384;0.040;2023-05-21T01:36:22;11.57;;;4.88;;
27706;SDS011;36332;51.384;0.040;2023-05-21T01:38:56;18.75;;;4.43;;
27706;SDS011;36332;51.384;0.040;2023-05-21T01:41:40;14.38;;;4.50;;
27706;SDS011;36332;51.384;0.040;2023-05-21T01:44:10;18.55;;;4.15;;
27706;SDS011;36332;51.384;0.040;2023-05-21T01:46:40;7.13;;;3.88;;
27706;SDS011;36332;51.384;0.040;2023-05-21T01:49:08;10.73;;;4.38;;
27706;SDS011;36332;51.384;0.040;2023-05-21T01:51:36;16.13;;;4.32;;
27706;SDS011;36332;51.384;0.040;2023-05-21T01:54:04;13.23;;;4.75;;
27706;SDS011;36332;51.384;0.040;2023-05-21T01:56:32;16.10;;;5.15;;
27706;SDS011;36332;51.384;0.040;2023-05-21T01:59:03;16.38;;;5.03;;
27706;SDS011;36332;51.384;0.040;2023-05-21T02:01:31;13.40;;;4.90;;
27706;SDS011;36332;51.384;0.040;2023-05-21T02:03:59;11.93;;;4.88;;
27706;SDS011;36332;51.384;0.040;2023-05-21T02:06:27;12.82;;;5.25;;
27706;SDS011;36332;51.384;0.040;2023-05-21T02:08:57;14.25;;;4.97;;
27706;SDS011;36332;51.384;0.040;2023-05-21T02:11:25;10.65;;;5.30;;
27706;SDS011;36332;51.384;0.040;2023-05-21T02:13:53;15.48;;;5.43;;
27706;SDS011;36332;51.384;0.040;2023-05-21T02:16:24;11.23;;;5.63;;
27706;SDS011;36332;51.384;0.040;2023-05-21T02:18:52;18.92;;;6.07;;
27706;SDS011;36332;51.384;0.040;2023-05-21T02:21:24;16.00;;;6.13;;
27706;SDS011;36332;51.384;0.040;2023-05-21T02:23:52;21.50;;;6.47;;
27706;SDS011;36332;51.384;0.040;2023-05-21T02:26:20;14.90;;;5.75;;
27706;SDS011;36332;51.384;0.040;2023-05-21T02:28:48;12.73;;;6.25;;
27706;SDS011;36332;51.384;0.040;2023-05-21T02:31:18;22.98;;;6.18;;
27706;SDS011;36332;51.384;0.040;2023-05-21T02:33:46;19.42;;;5.72;;
27706;SDS011;36332;51.384;0.040;2023-05-21T02:36:14;17.88;;;5.97;;
27706;SDS011;36332;51.384;0.040;2023-05-21T02:38:44;18.98;;;6.35;;
27706;SDS011;36332;51.384;0.040;2023-05-21T02:41:12;19.48;;;7.35;;
27706;SDS011;36332;51.384;0.040;2023-05-21T02:43:41;13.00;;;6.63;;
27706;SDS011;36332;51.384;0.040;2023-05-21T02:46:09;13.70;;;5.80;;
27706;SDS011;36332;51.384;0.040;2023-05-21T02:48:37;18.65;;;6.05;;
27706;SDS011;36332;51.384;0.040;2023-05-21T02:51:05;15.60;;;5.63;;
27706;SDS011;36332;51.384;0.040;2023-05-21T02:53:33;11.80;;;6.15;;
27706;SDS011;36332;51.384;0.040;2023-05-21T02:56:01;10.82;;;5.90;;
27706;SDS011;36332;51.384;0.040;2023-05-21T02:58:29;19.80;;;7.90;;
27706;SDS011;36332;51.384;0.040;2023-05-21T03:00:57;14.63;;;6.47;;
27706;SDS011;36332;51.384;0.040;2023-05-21T03:03:26;18.90;;;6.57;;
27706;SDS011;36332;51.384;0.040;2023-05-21T03:05:55;15.45;;;6.75;;
27706;SDS011;36332;51.384;0.040;2023-05-21T03:08:24;22.52;;;7.20;;
27706;SDS011;36332;51.384;0.040;2023-05-21T03:10:52;21.17;;;5.88;;
27706;SDS011;36332;51.384;0.040;2023-05-21T03:13:20;15.40;;;6.93;;
27706;SDS011;36332;51.384;0.040;2023-05-21T03:15:49;20.42;;;6.28;;
27706;SDS011;36332;51.384;0.040;2023-05-21T03:18:22;15.23;;;6.90;;
27706;SDS011;36332;51.384;0.040;2023-05-21T03:20:50;21.60;;;7.70;;
27706;SDS011;36332;51.384;0.040;2023-05-21T03:23:18;19.17;;;6.80;;
27706;SDS011;36332;51.384;0.040;2023-05-21T03:25:46;22.77;;;7.68;;
27706;SDS011;36332;51.384;0.040;2023-05-21T03:28:15;18.20;;;7.60;;
27706;SDS011;36332;51.384;0.040;2023-05-21T03:30:47;17.83;;;7.63;;
27706;SDS011;36332;51.384;0.040;2023-05-21T03:33:36;12.75;;;7.20;;
27706;SDS011;36332;51.384;0.040;2023-05-21T03:36:23;15.90;;;7.57;;
27706;SDS011;36332;51.384;0.040;2023-05-21T03:38:51;18.15;;;7.65;;
27706;SDS011;36332;51.384;0.040;2023-05-21T03:41:20;20.65;;;8.15;;
27706;SDS011;36332;51.384;0.040;2023-05-21T03:46:28;20.15;;;7.85;;
27706;SDS011;36332;51.384;0.040;2023-05-21T03:49:06;23.13;;;8.68;;
27706;SDS011;36332;51.384;0.040;2023-05-21T03:51:35;17.00;;;7.65;;
27706;SDS011;36332;51.384;0.040;2023-05-21T03:54:04;21.90;;;8.35;;
27706;SDS011;36332;51.384;0.040;2023-05-21T03:56:34;26.58;;;9.73;;
27706;SDS011;36332;51.384;0.040;2023-05-21T03:59:02;23.67;;;9.07;;
27706;SDS011;36332;51.384;0.040;2023-05-21T04:01:31;26.35;;;8.07;;
27706;SDS011;36332;51.384;0.040;2023-05-21T04:04:00;24.50;;;9.35;;
27706;SDS011;36332;51.384;0.040;2023-05-21T04:06:28;24.08;;;8.43;;
27706;SDS011;36332;51.384;0.040;2023-05-21T04:08:57;21.90;;;8.45;;
27706;SDS011;36332;51.384;0.040;2023-05-21T04:11:25;17.23;;;7.82;;
27706;SDS011;36332;51.384;0.040;2023-05-21T04:13:52;20.88;;;9.55;;
27706;SDS011;36332;51.384;0.040;2023-05-21T04:16:20;28.63;;;10.75;;
27706;SDS011;36332;51.384;0.040;2023-05-21T04:18:51;21.08;;;9.82;;
27706;SDS011;36332;51.384;0.040;2023-05-21T04:21:23;25.17;;;11.13;;
27706;SDS011;36332;51.384;0.040;2023-05-21T04:23:51;26.35;;;9.90;;
27706;SDS011;36332;51.384;0.040;2023-05-21T04:28:56;22.83;;;10.70;;
27706;SDS011;36332;51.384;0.040;2023-05-21T04:31:25;27.25;;;11.55;;
27706;SDS011;36332;51.384;0.040;2023-05-21T04:33:53;30.63;;;11.40;;
27706;SDS011;36332;51.384;0.040;2023-05-21T04:36:21;24.60;;;10.73;;
27706;SDS011;36332;51.384;0.040;2023-05-21T04:38:50;25.30;;;12.02;;
27706;SDS011;36332;51.384;0.040;2023-05-21T04:41:17;32.92;;;12.95;;
27706;SDS011;36332;51.384;0.040;2023-05-21T04:43:47;29.02;;;11.10;;
27706;SDS011;36332;51.384;0.040;2023-05-21T04:46:15;22.77;;;10.98;;
27706;SDS011;36332;51.384;0.040;2023-05-21T04:48:44;27.88;;;11.05;;
27706;SDS011;36332;51.384;0.040;2023-05-21T04:51:12;23.33;;;11.45;;
27706;SDS011;36332;51.384;0.040;2023-05-21T04:53:41;22.17;;;11.70;;
27706;SDS011;36332;51.384;0.040;2023-05-21T04:56:09;27.23;;;11.80;;
27706;SDS011;36332;51.384;0.040;2023-05-21T04:58:36;29.20;;;11.98;;
27706;SDS011;36332;51.384;0.040;2023-05-21T05:01:06;26.10;;;12.55;;
27706;SDS011;36332;51.384;0.040;2023-05-21T05:03:35;25.55;;;12.00;;
27706;SDS011;36332;51.384;0.040;2023-05-21T05:06:04;27.70;;;11.60;;
27706;SDS011;36332;51.384;0.040;2023-05-21T05:08:33;33.72;;;12.73;;
27706;SDS011;36332;51.384;0.040;2023-05-21T05:11:03;40.78;;;13.52;;
27706;SDS011;36332;51.384;0.040;2023-05-21T05:13:32;34.00;;;12.35;;
27706;SDS011;36332;51.384;0.040;2023-05-21T05:16:00;29.45;;;11.50;;
27706;SDS011;36332;51.384;0.040;2023-05-21T05:18:28;39.00;;;13.77;;
27706;SDS011;36332;51.384;0.040;2023-05-21T05:20:57;27.27;;;12.27;;
27706;SDS011;36332;51.384;0.040;2023-05-21T05:23:25;39.22;;;12.30;;
27706;SDS011;36332;51.384;0.040;2023-05-21T05:25:53;34.35;;;11.63;;
27706;SDS011;36332;51.384;0.040;2023-05-21T05:28:21;23.10;;;10.93;;
27706;SDS011;36332;51.384;0.040;2023-05-21T05:30:49;29.38;;;11.60;;
27706;SDS011;36332;51.384;0.040;2023-05-21T05:33:22;19.92;;;10.52;;
27706;SDS011;36332;51.384;0.040;2023-05-21T05:35:50;20.25;;;10.35;;
27706;SDS011;36332;51.384;0.040;2023-05-21T05:38:18;23.77;;;10.35;;
27706;SDS011;36332;51.384;0.040;2023-05-21T05:40:46;23.52;;;9.95;;
27706;SDS011;36332;51.384;0.040;2023-05-21T05:43:14;26.08;;;10.25;;
27706;SDS011;36332;51.384;0.040;2023-05-21T05:45:42;24.00;;;9.50;;
27706;SDS011;36332;51.384;0.040;2023-05-21T05:48:13;23.92;;;8.43;;
27706;SDS011;36332;51.384;0.040;2023-05-21T05:50:41;19.88;;;8.75;;
27706;SDS011;36332;51.384;0.040;2023-05-21T05:53:09;19.90;;;8.80;;
27706;SDS011;36332;51.384;0.040;2023-05-21T05:55:39;25.65;;;10.13;;
27706;SDS011;36332;51.384;0.040;2023-05-21T05:58:07;24.55;;;9.63;;
27706;SDS011;36332;51.384;0.040;2023-05-21T06:00:47;20.90;;;9.63;;
27706;SDS011;36332;51.384;0.040;2023-05-21T06:03:15;24.05;;;8.88;;
27706;SDS011;36332;51.384;0.040;2023-05-21T06:05:44;21.05;;;9.32;;
27706;SDS011;36332;51.384;0.040;2023-05-21T06:08:11;25.00;;;9.15;;
27706;SDS011;36332;51.384;0.040;2023-05-21T06:10:39;16.95;;;8.45;;
27706;SDS011;36332;51.384;0.040;2023-05-21T06:13:08;19.77;;;9.05;;
27706;SDS011;36332;51.384;0.040;2023-05-21T06:15:36;17.98;;;8.73;;
27706;SDS011;36332;51.384;0.040;2023-05-21T06:18:05;19.83;;;9.23;;
27706;SDS011;36332;51.384;0.040;2023-05-21T06:20:33;17.73;;;7.82;;
27706;SDS011;36332;51.384;0.040;2023-05-21T06:23:01;23.50;;;8.98;;
27706;SDS011;36332;51.384;0.040;2023-05-21T06:25:29;20.38;;;9.15;;
27706;SDS011;36332;51.384;0.040;2023-05-21T06:27:57;19.52;;;9.13;;
27706;SDS011;36332;51.384;0.040;2023-05-21T06:30:27;20.00;;;8.77;;
27706;SDS011;36332;51.384;0.040;2023-05-21T06:32:56;19.85;;;8.85;;
27706;SDS011;36332;51.384;0.040;2023-05-21T06:35:24;23.77;;;10.15;;
27706;SDS011;36332;51.384;0.040;2023-05-21T06:37:52;17.30;;;8.32;;
27706;SDS011;36332;51.384;0.040;2023-05-21T06:40:20;22.63;;;8.73;;
27706;SDS011;36332;51.384;0.040;2023-05-21T06:42:51;19.50;;;8.43;;
27706;SDS011;36332;51.384;0.040;2023-05-21T06:45:37;23.98;;;8.32;;
27706;SDS011;36332;51.384;0.040;2023-05-21T06:48:24;22.20;;;9.02;;
27706;SDS011;36332;51.384;0.040;2023-05-21T06:50:52;19.52;;;8.82;;
27706;SDS011;36332;51.384;0.040;2023-05-21T06:53:21;21.42;;;7.60;;
27706;SDS011;36332;51.384;0.040;2023-05-21T06:55:49;21.92;;;8.68;;
27706;SDS011;36332;51.384;0.040;2023-05-21T06:58:35;18.03;;;8.13;;
27706;SDS011;36332;51.384;0.040;2023-05-21T07:01:03;20.98;;;7.47;;
27706;SDS011;36332;51.384;0.040;2023-05-21T07:03:32;23.83;;;7.95;;
27706;SDS011;36332;51.384;0.040;2023-05-21T07:06:00;23.10;;;7.95;;
27706;SDS011;36332;51.384;0.040;2023-05-21T07:08:28;14.35;;;6.88;;
27706;SDS011;36332;51.384;0.040;2023-05-21T07:10:57;16.60;;;6.85;;
27706;SDS011;36332;51.384;0.040;2023-05-21T07:13:25;17.98;;;6.72;;
27706;SDS011;36332;51.384;0.040;2023-05-21T07:15:54;15.85;;;6.90;;
27706;SDS011;36332;51.384;0.040;2023-05-21T07:18:24;12.18;;;5.65;;
27706;SDS011;36332;51.384;0.040;2023-05-21T07:20:52;12.30;;;6.05;;
27706;SDS011;36332;51.384;0.040;2023-05-21T07:23:20;17.23;;;7.07;;
27706;SDS011;36332;51.384;0.040;2023-05-21T07:25:48;14.35;;;6.30;;
27706;SDS011;36332;51.384;0.040;2023-05-21T07:28:17;23.27;;;6.75;;
27706;SDS011;36332;51.384;0.040;2023-05-21T07:30:46;15.75;;;6.43;;
27706;SDS011;36332;51.384;0.040;2023-05-21T07:33:19;14.40;;;6.60;;
27706;SDS011;36332;51.384;0.040;2023-05-21T07:35:50;20.83;;;5.60;;
27706;SDS011;36332;51.384;0.040;2023-05-21T07:38:18;21.13;;;5.93;;
27706;SDS011;36332;51.384;0.040;2023-05-21T07:40:46;9.95;;;5.22;;
27706;SDS011;36332;51.384;0.040;2023-05-21T07:43:14;10.18;;;5.18;;
27706;SDS011;36332;51.384;0.040;2023-05-21T07:45:43;13.10;;;5.93;;
27706;SDS011;36332;51.384;0.040;2023-05-21T07:48:11;14.80;;;4.60;;
27706;SDS011;36332;51.384;0.040;2023-05-21T07:50:50;10.65;;;4.25;;
27706;SDS011;36332;51.384;0.040;2023-05-21T07:53:19;12.10;;;4.60;;
27706;SDS011;36332;51.384;0.040;2023-05-21T07:55:48;14.48;;;5.38;;
27706;SDS011;36332;51.384;0.040;2023-05-21T07:58:21;11.13;;;4.03;;
27706;SDS011;36332;51.384;0.040;2023-05-21T08:00:49;15.15;;;3.72;;
27706;SDS011;36332;51.384;0.040;2023-05-21T08:03:17;8.15;;;4.13;;
27706;SDS011;36332;51.384;0.040;2023-05-21T08:05:46;12.38;;;4.50;;
27706;SDS011;36332;51.384;0.040;2023-05-21T08:08:17;14.50;;;4.00;;
27706;SDS011;36332;51.384;0.040;2023-05-21T08:10:46;7.30;;;3.55;;
27706;SDS011;36332;51.384;0.040;2023-05-21T08:13:15;11.90;;;3.60;;
27706;SDS011;36332;51.384;0.040;2023-05-21T08:15:44;10.68;;;3.58;;
27706;SDS011;36332;51.384;0.040;2023-05-21T08:18:13;9.60;;;3.53;;
27706;SDS011;36332;51.384;0.040;2023-05-21T08:20:42;10.93;;;3.72;;
27706;SDS011;36332;51.384;0.040;2023-05-21T08:23:11;10.25;;;3.45;;
27706;SDS011;36332;51.384;0.040;2023-05-21T08:25:45;6.13;;;3.05;;
27706;SDS011;36332;51.384;0.040;2023-05-21T08:28:13;5.43;;;2.70;;
27706;SDS011;36332;51.384;0.040;2023-05-21T08:30:41;9.63;;;2.92;;
27706;SDS011;36332;51.384;0.040;2023-05-21T08:33:10;7.35;;;2.88;;
27706;SDS011;36332;51.384;0.040;2023-05-21T08:35:38;10.30;;;2.55;;
27706;SDS011;36332;51.384;0.040;2023-05-21T08:38:19;7.03;;;2.75;;
27706;SDS011;36332;51.384;0.040;2023-05-21T08:41:13;6.15;;;2.83;;
27706;SDS011;36332;51.384;0.040;2023-05-21T08:43:43;5.35;;;2.53;;
27706;SDS011;36332;51.384;0.040;2023-05-21T08:46:17;5.53;;;2.83;;
27706;SDS011;36332;51.384;0.040;2023-05-21T08:48:47;8.65;;;2.53;;
27706;SDS011;36332;51.384;0.040;2023-05-21T08:51:17;7.53;;;2.60;;
27706;SDS011;36332;51.384;0.040;2023-05-21T08:53:47;9.88;;;2.72;;
27706;SDS011;36332;51.384;0.040;2023-05-21T08:56:18;7.75;;;3.08;;
27706;SDS011;36332;51.384;0.040;2023-05-21T08:58:52;6.53;;;2.50;;
27706;SDS011;36332;51.384;0.040;2023-05-21T09:01:22;9.55;;;2.47;;
27706;SDS011;36332;51.384;0.040;2023-05-21T09:04:05;8.75;;;2.78;;
27706;SDS011;36332;51.384;0.040;2023-05-21T09:06:49;5.13;;;2.33;;
27706;SDS011;36332;51.384;0.040;2023-05-21T09:09:33;5.00;;;2.20;;
27706;SDS011;36332;51.384;0.040;2023-05-21T09:12:08;5.32;;;2.10;;
27706;SDS011;36332;51.384;0.040;2023-05-21T09:14:36;7.25;;;3.00;;
27706;SDS011;36332;51.384;0.040;2023-05-21T09:17:15;7.28;;;2.90;;
27706;SDS011;36332;51.384;0.040;2023-05-21T09:22:49;7.13;;;2.88;;
27706;SDS011;36332;51.384;0.040;2023-05-21T09:25:20;12.25;;;2.83;;
27706;SDS011;36332;51.384;0.040;2023-05-21T09:27:49;7.97;;;2.85;;
27706;SDS011;36332;51.384;0.040;2023-05-21T09:30:18;6.20;;;2.92;;
27706;SDS011;36332;51.384;0.040;2023-05-21T09:33:02;5.30;;;2.85;;
27706;SDS011;36332;51.384;0.040;2023-05-21T09:35:31;4.85;;;2.70;;
27706;SDS011;36332;51.384;0.040;2023-05-21T09:38:00;5.18;;;2.40;;
27706;SDS011;36332;51.384;0.040;2023-05-21T09:40:34;5.63;;;2.25;;
27706;SDS011;36332;51.384;0.040;2023-05-21T09:43:02;5.72;;;2.50;;
27706;SDS011;36332;51.384;0.040;2023-05-21T09:45:31;17.77;;;2.97;;
27706;SDS011;36332;51.384;0.040;2023-05-21T09:48:00;6.45;;;2.78;;
27706;SDS011;36332;51.384;0.040;2023-05-21T09:50:30;6.05;;;2.30;;
27706;SDS011;36332;51.384;0.040;2023-05-21T09:53:02;6.10;;;2.33;;
27706;SDS011;36332;51.384;0.040;2023-05-21T09:55:38;8.57;;;2.73;;
27706;SDS011;36332;51.384;0.040;2023-05-21T09:58:06;6.25;;;2.40;;
27706;SDS011;36332;51.384;0.040;2023-05-21T10:00:36;4.95;;;2.55;;
27706;SDS011;36332;51.384;0.040;2023-05-21T10:03:06;4.30;;;2.67;;
27706;SDS011;36332;51.384;0.040;2023-05-21T10:05:38;9.52;;;3.17;;
27706;SDS011;36332;51.384;0.040;2023-05-21T10:08:08;8.25;;;2.88;;
27706;SDS011;36332;51.384;0.040;2023-05-21T10:10:38;7.40;;;2.85;;
27706;SDS011;36332;51.384;0.040;2023-05-21T10:13:09;9.90;;;2.30;;
27706;SDS011;36332;51.384;0.040;2023-05-21T10:15:43;4.68;;;2.75;;
27706;SDS011;36332;51.384;0.040;2023-05-21T10:18:14;6.35;;;3.20;;
27706;SDS011;36332;51.384;0.040;2023-05-21T10:20:44;5.00;;;2.58;;
27706;SDS011;36332;51.384;0.040;2023-05-21T10:23:12;7.38;;;2.92;;
27706;SDS011;36332;51.384;0.040;2023-05-21T10:25:40;5.57;;;2.28;;
27706;SDS011;36332;51.384;0.040;2023-05-21T10:28:08;5.93;;;2.38;;
27706;SDS011;36332;51.384;0.040;2023-05-21T10:30:36;8.23;;;2.80;;
27706;SDS011;36332;51.384;0.040;2023-05-21T10:33:05;3.50;;;2.22;;
27706;SDS011;36332;51.384;0.040;2023-05-21T10:35:33;6.15;;;2.75;;
27706;SDS011;36332;51.384;0.040;2023-05-21T10:38:05;7.55;;;3.08;;
27706;SDS011;36332;51.384;0.040;2023-05-21T10:40:36;5.97;;;3.30;;
27706;SDS011;36332;51.384;0.040;2023-05-21T10:59:39;7.78;;;2.47;;
27706;SDS011;36332;51.384;0.040;2023-05-21T11:02:10;5.50;;;2.70;;
27706;SDS011;36332;51.384;0.040;2023-05-21T11:04:43;7.65;;;2.35;;
27706;SDS011;36332;51.384;0.040;2023-05-21T11:07:11;3.58;;;2.53;;
27706;SDS011;36332;51.384;0.040;2023-05-21T11:09:39;6.30;;;3.20;;
27706;SDS011;36332;51.384;0.040;2023-05-21T11:12:06;9.80;;;2.90;;
27706;SDS011;36332;51.384;0.040;2023-05-21T11:14:39;5.93;;;2.83;;
27706;SDS011;36332;51.384;0.040;2023-05-21T11:17:12;3.17;;;2.53;;
27706;SDS011;36332;51.384;0.040;2023-05-21T11:19:43;7.93;;;3.10;;
27706;SDS011;36332;51.384;0.040;2023-05-21T11:24:48;5.25;;;2.40;;
27706;SDS011;36332;51.384;0.040;2023-05-21T11:30:02;10.13;;;2.42;;
27706;SDS011;36332;51.384;0.040;2023-05-21T11:32:35;5.50;;;2.75;;
27706;SDS011;36332;51.384;0.040;2023-05-21T11:35:07;10.80;;;3.33;;
27706;SDS011;36332;51.384;0.040;2023-05-21T11:37:35;5.30;;;2.55;;
27706;SDS011;36332;51.384;0.040;2023-05-21T11:40:18;5.60;;;2.40;;
27706;SDS011;36332;51.384;0.040;2023-05-21T11:42:50;5.38;;;3.08;;
27706;SDS011;36332;51.384;0.040;2023-05-21T11:45:22;5.95;;;2.63;;
27706;SDS011;36332;51.384;0.040;2023-05-21T11:47:54;8.43;;;2.40;;
27706;SDS011;36332;51.384;0.040;2023-05-21T11:50:22;10.77;;;3.08;;
27706;SDS011;36332;51.384;0.040;2023-05-21T11:52:51;9.77;;;2.92;;
27706;SDS011;36332;51.384;0.040;2023-05-21T11:55:22;9.07;;;3.47;;
27706;SDS011;36332;51.384;0.040;2023-05-21T11:57:52;8.60;;;3.53;;
27706;SDS011;36332;51.384;0.040;2023-05-21T12:00:21;6.60;;;3.55;;
27706;SDS011;36332;51.384;0.040;2023-05-21T12:02:50;5.32;;;3.17;;
27706;SDS011;36332;51.384;0.040;2023-05-21T12:05:18;10.20;;;3.30;;
27706;SDS011;36332;51.384;0.040;2023-05-21T12:07:46;6.10;;;3.47;;
27706;SDS011;36332;51.384;0.040;2023-05-21T12:10:19;7.60;;;2.78;;
27706;SDS011;36332;51.384;0.040;2023-05-21T12:12:48;5.50;;;2.65;;
27706;SDS011;36332;51.384;0.040;2023-05-21T12:15:23;8.05;;;3.13;;
27706;SDS011;36332;51.384;0.040;2023-05-21T12:17:53;10.38;;;2.90;;
27706;SDS011;36332;51.384;0.040;2023-05-21T12:20:21;8.18;;;3.50;;
27706;SDS011;36332;51.384;0.040;2023-05-21T12:22:49;4.07;;;3.45;;
27706;SDS011;36332;51.384;0.040;2023-05-21T12:25:18;7.40;;;3.03;;
27706;SDS011;36332;51.384;0.040;2023-05-21T12:27:49;10.30;;;3.58;;
27706;SDS011;36332;51.384;0.040;2023-05-21T12:30:24;8.20;;;3.30;;
27706;SDS011;36332;51.384;0.040;2023-05-21T12:32:56;9.48;;;3.45;;
27706;SDS011;36332;51.384;0.040;2023-05-21T12:35:24;10.43;;;3.05;;
27706;SDS011;36332;51.384;0.040;2023-05-21T12:37:52;7.65;;;3.53;;
27706;SDS011;36332;51.384;0.040;2023-05-21T12:40:20;8.05;;;3.17;;
27706;SDS011;36332;51.384;0.040;2023-05-21T12:42:48;9.80;;;3.40;;
27706;SDS011;36332;51.384;0.040;2023-05-21T12:45:16;5.70;;;3.40;;
27706;SDS011;36332;51.384;0.040;2023-05-21T12:47:46;7.47;;;3.42;;
27706;SDS011;36332;51.384;0.040;2023-05-21T12:50:22;7.78;;;3.42;;
27706;SDS011;36332;51.384;0.040;2023-05-21T12:52:54;8.05;;;3.67;;
27706;SDS011;36332;51.384;0.040;2023-05-21T12:55:24;7.45;;;3.30;;
27706;SDS011;36332;51.384;0.040;2023-05-21T12:58:02;9.60;;;3.35;;
27706;SDS011;36332;51.384;0.040;2023-05-21T13:00:35;6.93;;;3.50;;
27706;SDS011;36332;51.384;0.040;2023-05-21T13:03:04;15.18;;;4.15;;
27706;SDS011;36332;51.384;0.040;2023-05-21T13:05:33;6.03;;;3.40;;
27706;SDS011;36332;51.384;0.040;2023-05-21T13:08:01;6.85;;;3.63;;
27706;SDS011;36332;51.384;0.040;2023-05-21T13:10:29;5.82;;;3.58;;
27706;SDS011;36332;51.384;0.040;2023-05-21T13:12:56;8.35;;;3.20;;
27706;SDS011;36332;51.384;0.040;2023-05-21T13:15:24;8.70;;;3.70;;
27706;SDS011;36332;51.384;0.040;2023-05-21T13:17:52;7.30;;;3.22;;
27706;SDS011;36332;51.384;0.040;2023-05-21T13:20:23;7.90;;;3.28;;
27706;SDS011;36332;51.384;0.040;2023-05-21T13:22:53;6.47;;;3.53;;
27706;SDS011;36332;51.384;0.040;2023-05-21T13:25:23;9.52;;;3.30;;
27706;SDS011;36332;51.384;0.040;2023-05-21T13:27:55;8.63;;;3.67;;
27706;SDS011;36332;51.384;0.040;2023-05-21T13:30:24;9.23;;;3.97;;
27706;SDS011;36332;51.384;0.040;2023-05-21T13:32:52;8.07;;;3.92;;
27706;SDS011;36332;51.384;0.040;2023-05-21T13:35:19;6.97;;;3.67;;
27706;SDS011;36332;51.384;0.040;2023-05-21T13:37:47;8.07;;;3.90;;
27706;SDS011;36332;51.384;0.040;2023-05-21T13:40:15;8.75;;;3.95;;
27706;SDS011;36332;51.384;0.040;2023-05-21T13:42:44;9.52;;;3.83;;
27706;SDS011;36332;51.384;0.040;2023-05-21T13:45:13;8.63;;;3.65;;
27706;SDS011;36332;51.384;0.040;2023-05-21T13:47:43;8.35;;;3.53;;
27706;SDS011;36332;51.384;0.040;2023-05-21T13:50:11;7.32;;;3.65;;
27706;SDS011;36332;51.384;0.040;2023-05-21T13:52:40;16.15;;;4.63;;
27706;SDS011;36332;51.384;0.040;2023-05-21T13:55:08;11.40;;;4.50;;
27706;SDS011;36332;51.384;0.040;2023-05-21T13:57:37;8.55;;;4.20;;
27706;SDS011;36332;51.384;0.040;2023-05-21T14:00:04;6.45;;;4.00;;
27706;SDS011;36332;51.384;0.040;2023-05-21T14:02:36;11.40;;;5.25;;
27706;SDS011;36332;51.384;0.040;2023-05-21T14:05:04;6.82;;;4.20;;
27706;SDS011;36332;51.384;0.040;2023-05-21T14:07:32;10.95;;;3.80;;
27706;SDS011;36332;51.384;0.040;2023-05-21T14:09:59;7.82;;;4.50;;
27706;SDS011;36332;51.384;0.040;2023-05-21T14:12:28;7.70;;;4.20;;
27706;SDS011;36332;51.384;0.040;2023-05-21T14:14:57;22.38;;;9.70;;
27706;SDS011;36332;51.384;0.040;2023-05-21T14:17:24;11.05;;;4.72;;
27706;SDS011;36332;51.384;0.040;2023-05-21T14:19:52;9.20;;;4.15;;
27706;SDS011;36332;51.384;0.040;2023-05-21T14:22:22;13.85;;;3.58;;
27706;SDS011;36332;51.384;0.040;2023-05-21T14:24:49;8.02;;;3.50;;
27706;SDS011;36332;51.384;0.040;2023-05-21T14:27:17;11.23;;;4.75;;
27706;SDS011;36332;51.384;0.040;2023-05-21T14:29:45;8.70;;;3.42;;
27706;SDS011;36332;51.384;0.040;2023-05-21T14:32:12;4.93;;;3.28;;
27706;SDS011;36332;51.384;0.040;2023-05-21T14:34:40;8.55;;;3.92;;
27706;SDS011;36332;51.384;0.040;2023-05-21T14:37:07;6.65;;;3.78;;
27706;SDS011;36332;51.384;0.040;2023-05-21T14:39:35;12.23;;;3.75;;
27706;SDS011;36332;51.384;0.040;2023-05-21T14:42:03;9.80;;;4.47;;
27706;SDS011;36332;51.384;0.040;2023-05-21T14:44:31;17.00;;;8.25;;
27706;SDS011;36332;51.384;0.040;2023-05-21T14:46:58;12.38;;;7.40;;
27706;SDS011;36332;51.384;0.040;2023-05-21T14:49:26;11.27;;;6.47;;
27706;SDS011;36332;51.384;0.040;2023-05-21T14:51:54;9.70;;;5.10;;
27706;SDS011;36332;51.384;0.040;2023-05-21T14:54:22;7.25;;;4.38;;
27706;SDS011;36332;51.384;0.040;2023-05-21T14:56:50;8.50;;;3.03;;
27706;SDS011;36332;51.384;0.040;2023-05-21T14:59:17;6.28;;;3.38;;
27706;SDS011;36332;51.384;0.040;2023-05-21T15:01:45;6.07;;;3.47;;
27706;SDS011;36332;51.384;0.040;2023-05-21T15:04:13;10.00;;;4.10;;
27706;SDS011;36332;51.384;0.040;2023-05-21T15:06:41;13.60;;;5.25;;
27706;SDS011;36332;51.384;0.040;2023-05-21T15:09:08;9.45;;;3.90;;
27706;SDS011;36332;51.384;0.040;2023-05-21T15:11:36;6.07;;;3.30;;
27706;SDS011;36332;51.384;0.040;2023-05-21T15:14:05;7.43;;;4.10;;
27706;SDS011;36332;51.384;0.040;2023-05-21T15:16:33;6.78;;;4.10;;
27706;SDS011;36332;51.384;0.040;2023-05-21T15:19:02;7.78;;;3.67;;
27706;SDS011;36332;51.384;0.040;2023-05-21T15:21:29;6.30;;;3.20;;
27706;SDS011;36332;51.384;0.040;2023-05-21T15:23:58;10.73;;;4.25;;